sensor_id;sensor_type;location;lat;lon;timestamp;temperature;humidity
1075;DHT22;526;51.392;12.448;2023-04-01T00:00:19;9.50;97.30
1075;DHT22;526;51.392;12.448;2023-04-01T00:02:45;9.50;97.30
1075;DHT22;526;51.392;12.448;2023-04-01T00:05:11;9.50;97.30
1075;DHT22;526;51.392;12.448;2023-04-01T00:07:38;9.50;97.30
1075;DHT22;526;51.392;12.448;2023-04-01T00:10:08;9.50;97.30
1075;DHT22;526;51.392;12.448;2023-04-01T00:12:34;9.40;97.30
1075;DHT22;526;51.392;12.448;2023-04-01T00:15:00;9.40;97.30
1075;DHT22;526;51.392;12.448;2023-04-01T00:17:26;9.40;97.30
1075;DHT22;526;51.392;12.448;2023-04-01T00:19:51;9.40;97.30
1075;DHT22;526;51.392;12.448;2023-04-01T00:22:17;9.40;97.30
1075;DHT22;526;51.392;12.448;2023-04-01T00:24:42;9.30;97.30
1075;DHT22;526;51.392;12.448;2023-04-01T00:27:08;9.30;97.30
1075;DHT22;526;51.392;12.448;2023-04-01T00:29:34;9.30;97.30
1075;DHT22;526;51.392;12.448;2023-04-01T00:32:00;9.30;97.30
1075;DHT22;526;51.392;12.448;2023-04-01T00:34:26;9.30;97.30
1075;DHT22;526;51.392;12.448;2023-04-01T00:36:51;9.20;97.30
1075;DHT22;526;51.392;12.448;2023-04-01T00:39:18;9.30;97.30
1075;DHT22;526;51.392;12.448;2023-04-01T00:41:43;9.20;97.30
1075;DHT22;526;51.392;12.448;2023-04-01T00:44:21;9.20;97.30
1075;DHT22;526;51.392;12.448;2023-04-01T00:46:47;9.20;97.30
1075;DHT22;526;51.392;12.448;2023-04-01T00:49:14;9.20;97.30
1075;DHT22;526;51.392;12.448;2023-04-01T00:51:42;9.20;97.30
1075;DHT22;526;51.392;12.448;2023-04-01T00:54:09;9.20;97.30
1075;DHT22;526;51.392;12.448;2023-04-01T00:56:55;9.20;97.30
1075;DHT22;526;51.392;12.448;2023-04-01T00:59:55;9.20;97.30
1075;DHT22;526;51.392;12.448;2023-04-01T01:02:21;9.10;97.30
1075;DHT22;526;51.392;12.448;2023-04-01T01:04:47;9.20;97.30
1075;DHT22;526;51.392;12.448;2023-04-01T01:15:48;9.20;97.30
1075;DHT22;526;51.392;12.448;2023-04-01T01:18:19;9.20;97.30
1075;DHT22;526;51.392;12.448;2023-04-01T01:24:13;9.20;97.30
1075;DHT22;526;51.392;12.448;2023-04-01T01:37:45;9.10;97.30
1075;DHT22;526;51.392;12.448;2023-04-01T01:40:12;9.10;97.30
1075;DHT22;526;51.392;12.448;2023-04-01T01:42:43;9.10;97.30
1075;DHT22;526;51.392;12.448;2023-04-01T01:45:11;9.10;97.30
1075;DHT22;526;51.392;12.448;2023-04-01T01:47:38;9.10;97.30
1075;DHT22;526;51.392;12.448;2023-04-01T01:50:06;9.10;97.30
1075;DHT22;526;51.392;12.448;2023-04-01T01:52:32;9.10;97.30
1075;DHT22;526;51.392;12.448;2023-04-01T01:54:58;9.10;97.30
1075;DHT22;526;51.392;12.448;2023-04-01T01:57:28;9.10;97.30
1075;DHT22;526;51.392;12.448;2023-04-01T01:59:58;9.10;97.30
1075;DHT22;526;51.392;12.448;2023-04-01T02:02:26;9.10;97.30
1075;DHT22;526;51.392;12.448;2023-04-01T02:04:56;9.10;97.30
1075;DHT22;526;51.392;12.448;2023-04-01T02:07:29;9.10;97.30
1075;DHT22;526;51.392;12.448;2023-04-01T02:09:55;9.10;97.30
1075;DHT22;526;51.392;12.448;2023-04-01T02:12:22;9.10;97.30
1075;DHT22;526;51.392;12.448;2023-04-01T02:15:03;9.10;97.30
1075;DHT22;526;51.392;12.448;2023-04-01T02:17:31;9.10;97.30
1075;DHT22;526;51.392;12.448;2023-04-01T02:20:01;9.10;97.30
1075;DHT22;526;51.392;12.448;2023-04-01T02:22:31;9.10;97.30
1075;DHT22;526;51.392;12.448;2023-04-01T02:25:05;9.10;97.30
1075;DHT22;526;51.392;12.448;2023-04-01T02:27:31;9.10;97.30
1075;DHT22;526;51.392;12.448;2023-04-01T02:29:57;9.10;97.30
1075;DHT22;526;51.392;12.448;2023-04-01T02:32:24;9.20;97.30
1075;DHT22;526;51.392;12.448;2023-04-01T02:34:50;9.10;97.30
1075;DHT22;526;51.392;12.448;2023-04-01T02:37:16;9.10;97.30
1075;DHT22;526;51.392;12.448;2023-04-01T02:39:42;9.10;97.30
1075;DHT22;526;51.392;12.448;2023-04-01T02:42:08;9.20;97.30
1075;DHT22;526;51.392;12.448;2023-04-01T02:44:34;9.20;97.30
1075;DHT22;526;51.392;12.448;2023-04-01T02:46:59;9.10;97.30
1075;DHT22;526;51.392;12.448;2023-04-01T02:49:25;9.10;97.30
1075;DHT22;526;51.392;12.448;2023-04-01T02:51:51;9.20;97.30
1075;DHT22;526;51.392;12.448;2023-04-01T02:54:17;9.10;97.30
1075;DHT22;526;51.392;12.448;2023-04-01T02:56:43;9.20;97.30
1075;DHT22;526;51.392;12.448;2023-04-01T02:59:08;9.20;97.30
1075;DHT22;526;51.392;12.448;2023-04-01T03:01:34;9.20;97.30
1075;DHT22;526;51.392;12.448;2023-04-01T03:04:00;9.20;97.30
1075;DHT22;526;51.392;12.448;2023-04-01T03:06:25;9.20;97.30
1075;DHT22;526;51.392;12.448;2023-04-01T03:08:50;9.20;97.30
1075;DHT22;526;51.392;12.448;2023-04-01T03:11:16;9.20;97.30
1075;DHT22;526;51.392;12.448;2023-04-01T03:13:41;9.20;97.30
1075;DHT22;526;51.392;12.448;2023-04-01T03:16:07;9.30;97.30
1075;DHT22;526;51.392;12.448;2023-04-01T03:18:33;9.30;97.30
1075;DHT22;526;51.392;12.448;2023-04-01T03:21:12;9.30;97.30
1075;DHT22;526;51.392;12.448;2023-04-01T03:23:38;9.30;97.30
1075;DHT22;526;51.392;12.448;2023-04-01T03:26:03;9.30;97.30
1075;DHT22;526;51.392;12.448;2023-04-01T03:28:29;9.30;97.30
1075;DHT22;526;51.392;12.448;2023-04-01T03:30:55;9.30;97.30
1075;DHT22;526;51.392;12.448;2023-04-01T03:33:20;9.30;97.30
1075;DHT22;526;51.392;12.448;2023-04-01T03:35:45;9.30;97.30
1075;DHT22;526;51.392;12.448;2023-04-01T03:38:11;9.30;97.30
1075;DHT22;526;51.392;12.448;2023-04-01T03:40:36;9.30;97.30
1075;DHT22;526;51.392;12.448;2023-04-01T03:43:03;9.30;97.30
1075;DHT22;526;51.392;12.448;2023-04-01T03:45:33;9.30;97.30
1075;DHT22;526;51.392;12.448;2023-04-01T03:47:58;9.30;97.30
1075;DHT22;526;51.392;12.448;2023-04-01T03:50:24;9.30;97.30
1075;DHT22;526;51.392;12.448;2023-04-01T03:52:50;9.30;97.30
1075;DHT22;526;51.392;12.448;2023-04-01T03:55:16;9.30;97.30
1075;DHT22;526;51.392;12.448;2023-04-01T03:57:43;9.30;97.30
1075;DHT22;526;51.392;12.448;2023-04-01T04:00:09;9.30;97.30
1075;DHT22;526;51.392;12.448;2023-04-01T04:02:35;9.20;97.30
1075;DHT22;526;51.392;12.448;2023-04-01T04:05:01;9.20;97.30
1075;DHT22;526;51.392;12.448;2023-04-01T04:07:26;9.20;97.30
1075;DHT22;526;51.392;12.448;2023-04-01T04:09:52;9.20;97.30
1075;DHT22;526;51.392;12.448;2023-04-01T04:12:17;9.20;97.30
1075;DHT22;526;51.392;12.448;2023-04-01T04:14:42;9.10;97.30
1075;DHT22;526;51.392;12.448;2023-04-01T04:17:10;9.10;97.30
1075;DHT22;526;51.392;12.448;2023-04-01T04:19:41;9.10;97.30
1075;DHT22;526;51.392;12.448;2023-04-01T04:22:07;9.10;97.30
1075;DHT22;526;51.392;12.448;2023-04-01T04:24:35;9.10;97.30
1075;DHT22;526;51.392;12.448;2023-04-01T04:27:01;9.00;97.30
1075;DHT22;526;51.392;12.448;2023-04-01T04:29:27;9.00;97.30
1075;DHT22;526;51.392;12.448;2023-04-01T04:31:52;9.00;97.30
1075;DHT22;526;51.392;12.448;2023-04-01T04:34:18;9.00;97.30
1075;DHT22;526;51.392;12.448;2023-04-01T04:36:44;9.00;97.30
1075;DHT22;526;51.392;12.448;2023-04-01T04:39:10;9.00;97.30
1075;DHT22;526;51.392;12.448;2023-04-01T04:41:37;9.00;97.30
1075;DHT22;526;51.392;12.448;2023-04-01T04:44:03;9.00;97.30
1075;DHT22;526;51.392;12.448;2023-04-01T04:46:29;9.00;97.30
1075;DHT22;526;51.392;12.448;2023-04-01T04:48:54;9.00;97.30
1075;DHT22;526;51.392;12.448;2023-04-01T04:51:21;9.00;97.30
1075;DHT22;526;51.392;12.448;2023-04-01T04:53:47;9.00;97.30
1075;DHT22;526;51.392;12.448;2023-04-01T04:56:17;9.00;97.30
1075;DHT22;526;51.392;12.448;2023-04-01T04:58:43;9.00;97.30
1075;DHT22;526;51.392;12.448;2023-04-01T05:01:14;9.00;97.30
1075;DHT22;526;51.392;12.448;2023-04-01T05:03:40;9.00;97.30
1075;DHT22;526;51.392;12.448;2023-04-01T05:06:06;9.00;97.30
1075;DHT22;526;51.392;12.448;2023-04-01T05:08:32;9.00;97.30
1075;DHT22;526;51.392;12.448;2023-04-01T05:10:59;9.00;97.30
1075;DHT22;526;51.392;12.448;2023-04-01T05:13:25;9.00;97.30
1075;DHT22;526;51.392;12.448;2023-04-01T05:15:50;9.00;97.30
1075;DHT22;526;51.392;12.448;2023-04-01T05:18:16;9.00;97.30
1075;DHT22;526;51.392;12.448;2023-04-01T05:20:53;9.00;97.30
1075;DHT22;526;51.392;12.448;2023-04-01T05:23:20;9.00;97.30
1075;DHT22;526;51.392;12.448;2023-04-01T05:25:47;9.00;97.30
1075;DHT22;526;51.392;12.448;2023-04-01T05:28:13;9.00;97.30
1075;DHT22;526;51.392;12.448;2023-04-01T05:30:43;9.00;97.30
1075;DHT22;526;51.392;12.448;2023-04-01T05:33:10;9.00;97.30
1075;DHT22;526;51.392;12.448;2023-04-01T05:35:36;9.00;97.30
1075;DHT22;526;51.392;12.448;2023-04-01T05:38:02;9.10;97.30
1075;DHT22;526;51.392;12.448;2023-04-01T05:40:28;9.10;97.30
1075;DHT22;526;51.392;12.448;2023-04-01T05:42:54;9.10;97.30
1075;DHT22;526;51.392;12.448;2023-04-01T05:45:20;9.20;97.30
1075;DHT22;526;51.392;12.448;2023-04-01T05:47:45;9.20;97.30
1075;DHT22;526;51.392;12.448;2023-04-01T05:50:11;9.20;97.30
1075;DHT22;526;51.392;12.448;2023-04-01T05:52:38;9.30;97.30
1075;DHT22;526;51.392;12.448;2023-04-01T05:55:04;9.30;97.30
1075;DHT22;526;51.392;12.448;2023-04-01T05:57:29;9.30;97.30
1075;DHT22;526;51.392;12.448;2023-04-01T05:59:55;9.30;97.30
1075;DHT22;526;51.392;12.448;2023-04-01T06:02:20;9.40;97.30
1075;DHT22;526;51.392;12.448;2023-04-01T06:04:46;9.40;97.30
1075;DHT22;526;51.392;12.448;2023-04-01T06:07:17;9.40;97.30
1075;DHT22;526;51.392;12.448;2023-04-01T06:09:44;9.40;97.30
1075;DHT22;526;51.392;12.448;2023-04-01T06:12:29;9.50;97.30
1075;DHT22;526;51.392;12.448;2023-04-01T06:17:41;9.50;97.30
1075;DHT22;526;51.392;12.448;2023-04-01T06:20:15;9.50;97.30
1075;DHT22;526;51.392;12.448;2023-04-01T06:23:08;9.50;97.30
1075;DHT22;526;51.392;12.448;2023-04-01T06:25:45;9.60;97.30
1075;DHT22;526;51.392;12.448;2023-04-01T06:28:38;9.60;97.30
1075;DHT22;526;51.392;12.448;2023-04-01T06:31:10;9.60;97.30
1075;DHT22;526;51.392;12.448;2023-04-01T06:41:46;9.70;97.30
1075;DHT22;526;51.392;12.448;2023-04-01T06:44:35;9.70;97.30
1075;DHT22;526;51.392;12.448;2023-04-01T06:47:29;9.70;97.30
1075;DHT22;526;51.392;12.448;2023-04-01T06:56:09;9.90;97.30
1075;DHT22;526;51.392;12.448;2023-04-01T07:00:50;10.00;97.30
1075;DHT22;526;51.392;12.448;2023-04-01T07:03:21;10.00;97.30
1075;DHT22;526;51.392;12.448;2023-04-01T07:05:48;10.00;97.30
1075;DHT22;526;51.392;12.448;2023-04-01T07:08:26;10.10;97.30
1075;DHT22;526;51.392;12.448;2023-04-01T07:11:06;10.20;97.30
1075;DHT22;526;51.392;12.448;2023-04-01T07:13:49;10.20;97.30
1075;DHT22;526;51.392;12.448;2023-04-01T07:16:38;10.30;97.30
1075;DHT22;526;51.392;12.448;2023-04-01T07:19:12;10.30;97.30
1075;DHT22;526;51.392;12.448;2023-04-01T07:21:52;10.40;97.30
1075;DHT22;526;51.392;12.448;2023-04-01T07:24:40;10.50;97.30
1075;DHT22;526;51.392;12.448;2023-04-01T07:27:12;10.60;97.30
1075;DHT22;526;51.392;12.448;2023-04-01T07:29:38;10.70;97.30
1075;DHT22;526;51.392;12.448;2023-04-01T07:32:19;10.80;97.30
1075;DHT22;526;51.392;12.448;2023-04-01T07:35:27;10.80;97.30
1075;DHT22;526;51.392;12.448;2023-04-01T07:38:16;10.90;97.30
1075;DHT22;526;51.392;12.448;2023-04-01T07:41:10;10.90;97.30
1075;DHT22;526;51.392;12.448;2023-04-01T07:43:54;11.00;97.30
1075;DHT22;526;51.392;12.448;2023-04-01T07:46:50;11.00;97.30
1075;DHT22;526;51.392;12.448;2023-04-01T07:49:40;11.00;97.30
1075;DHT22;526;51.392;12.448;2023-04-01T07:52:25;11.00;97.30
1075;DHT22;526;51.392;12.448;2023-04-01T08:00:07;11.00;97.30
1075;DHT22;526;51.392;12.448;2023-04-01T08:05:22;11.00;97.30
1075;DHT22;526;51.392;12.448;2023-04-01T08:11:09;11.10;97.30
1075;DHT22;526;51.392;12.448;2023-04-01T08:16:18;11.10;97.30
1075;DHT22;526;51.392;12.448;2023-04-01T08:19:18;11.10;97.30
1075;DHT22;526;51.392;12.448;2023-04-01T08:21:52;11.10;97.30
1075;DHT22;526;51.392;12.448;2023-04-01T08:24:25;11.10;97.30
1075;DHT22;526;51.392;12.448;2023-04-01T08:26:55;11.10;97.30
1075;DHT22;526;51.392;12.448;2023-04-01T08:29:26;11.10;97.30
1075;DHT22;526;51.392;12.448;2023-04-01T08:32:12;11.10;97.30
1075;DHT22;526;51.392;12.448;2023-04-01T08:34:43;11.10;97.30
1075;DHT22;526;51.392;12.448;2023-04-01T08:37:17;11.20;97.30
1075;DHT22;526;51.392;12.448;2023-04-01T08:42:52;11.20;97.30
1075;DHT22;526;51.392;12.448;2023-04-01T08:48:28;11.40;97.30
1075;DHT22;526;51.392;12.448;2023-04-01T08:51:18;11.50;97.30
1075;DHT22;526;51.392;12.448;2023-04-01T08:54:23;11.70;97.30
1075;DHT22;526;51.392;12.448;2023-04-01T09:09:17;11.90;97.30
1075;DHT22;526;51.392;12.448;2023-04-01T09:12:15;12.00;97.30
1075;DHT22;526;51.392;12.448;2023-04-01T09:18:04;11.90;97.30
1075;DHT22;526;51.392;12.448;2023-04-01T09:21:04;11.90;97.30
1075;DHT22;526;51.392;12.448;2023-04-01T09:41:25;12.40;97.30
1075;DHT22;526;51.392;12.448;2023-04-01T09:44:11;12.50;97.30
1075;DHT22;526;51.392;12.448;2023-04-01T09:47:01;12.50;97.30
1075;DHT22;526;51.392;12.448;2023-04-01T09:49:43;12.40;97.30
1075;DHT22;526;51.392;12.448;2023-04-01T09:52:25;12.40;97.30
1075;DHT22;526;51.392;12.448;2023-04-01T10:03:55;12.20;97.30
1075;DHT22;526;51.392;12.448;2023-04-01T10:06:38;12.30;97.30
1075;DHT22;526;51.392;12.448;2023-04-01T10:09:29;12.40;97.30
1075;DHT22;526;51.392;12.448;2023-04-01T10:12:24;12.40;97.30
1075;DHT22;526;51.392;12.448;2023-04-01T10:18:20;12.40;97.30
1075;DHT22;526;51.392;12.448;2023-04-01T10:26:26;12.40;97.30
1075;DHT22;526;51.392;12.448;2023-04-01T10:40:07;12.00;97.30
1075;DHT22;526;51.392;12.448;2023-04-01T10:42:50;11.90;97.30
1075;DHT22;526;51.392;12.448;2023-04-01T10:48:18;11.90;97.30
1075;DHT22;526;51.392;12.448;2023-04-01T10:51:01;11.90;97.30
1075;DHT22;526;51.392;12.448;2023-04-01T10:56:29;11.90;97.30
1075;DHT22;526;51.392;12.448;2023-04-01T10:59:36;12.00;97.30
1075;DHT22;526;51.392;12.448;2023-04-01T11:08:37;12.00;97.30
1075;DHT22;526;51.392;12.448;2023-04-01T11:23:28;11.60;97.30
1075;DHT22;526;51.392;12.448;2023-04-01T11:26:06;11.60;97.30
1075;DHT22;526;51.392;12.448;2023-04-01T11:28:51;11.60;97.30
1075;DHT22;526;51.392;12.448;2023-04-01T11:31:37;11.60;97.30
1075;DHT22;526;51.392;12.448;2023-04-01T11:40:25;11.80;97.30
1075;DHT22;526;51.392;12.448;2023-04-01T11:46:05;11.90;97.30
1075;DHT22;526;51.392;12.448;2023-04-01T11:54:04;12.00;97.30
1075;DHT22;526;51.392;12.448;2023-04-01T11:56:35;12.00;97.30
1075;DHT22;526;51.392;12.448;2023-04-01T11:59:09;12.00;97.30
1075;DHT22;526;51.392;12.448;2023-04-01T12:02:16;12.10;97.30
1075;DHT22;526;51.392;12.448;2023-04-01T12:07:50;12.40;97.30
1075;DHT22;526;51.392;12.448;2023-04-01T12:10:25;12.50;97.30
1075;DHT22;526;51.392;12.448;2023-04-01T12:13:40;12.60;97.30
1075;DHT22;526;51.392;12.448;2023-04-01T12:17:00;12.60;97.30
1075;DHT22;526;51.392;12.448;2023-04-01T12:19:29;12.40;97.30
1075;DHT22;526;51.392;12.448;2023-04-01T12:28:02;12.00;97.30
1075;DHT22;526;51.392;12.448;2023-04-01T12:33:34;12.10;97.30
1075;DHT22;526;51.392;12.448;2023-04-01T12:36:35;12.10;97.30
1075;DHT22;526;51.392;12.448;2023-04-01T12:42:14;12.10;97.30
1075;DHT22;526;51.392;12.448;2023-04-01T12:53:27;12.00;97.30
1075;DHT22;526;51.392;12.448;2023-04-01T12:55:59;12.00;97.30
1075;DHT22;526;51.392;12.448;2023-04-01T13:04:34;12.10;97.30
1075;DHT22;526;51.392;12.448;2023-04-01T13:07:41;12.10;97.30
1075;DHT22;526;51.392;12.448;2023-04-01T13:18:44;12.30;97.30
1075;DHT22;526;51.392;12.448;2023-04-01T13:24:22;12.40;97.30
1075;DHT22;526;51.392;12.448;2023-04-01T13:27:25;12.40;97.30
1075;DHT22;526;51.392;12.448;2023-04-01T13:30:09;12.40;97.30
1075;DHT22;526;51.392;12.448;2023-04-01T13:32:50;12.30;97.30
1075;DHT22;526;51.392;12.448;2023-04-01T13:35:35;12.30;97.30
1075;DHT22;526;51.392;12.448;2023-04-01T13:40:40;12.30;97.30
1075;DHT22;526;51.392;12.448;2023-04-01T13:43:28;12.30;97.30
1075;DHT22;526;51.392;12.448;2023-04-01T13:47:02;12.30;97.30
1075;DHT22;526;51.392;12.448;2023-04-01T13:49:30;12.30;97.30
1075;DHT22;526;51.392;12.448;2023-04-01T13:52:05;12.30;97.30
1075;DHT22;526;51.392;12.448;2023-04-01T13:57:16;12.30;97.30
1075;DHT22;526;51.392;12.448;2023-04-01T14:06:12;12.20;97.30
1075;DHT22;526;51.392;12.448;2023-04-01T14:17:06;12.20;97.30
1075;DHT22;526;51.392;12.448;2023-04-01T14:20:21;12.20;97.30
1075;DHT22;526;51.392;12.448;2023-04-01T14:28:53;11.90;97.30
1075;DHT22;526;51.392;12.448;2023-04-01T14:34:53;11.80;97.30
1075;DHT22;526;51.392;12.448;2023-04-01T14:37:43;11.80;97.30
1075;DHT22;526;51.392;12.448;2023-04-01T14:40:46;11.80;97.30
1075;DHT22;526;51.392;12.448;2023-04-01T14:43:40;11.90;97.30
1075;DHT22;526;51.392;12.448;2023-04-01T14:46:49;11.90;97.30
1075;DHT22;526;51.392;12.448;2023-04-01T14:49:34;12.00;97.30
1075;DHT22;526;51.392;12.448;2023-04-01T14:52:14;12.00;97.30
1075;DHT22;526;51.392;12.448;2023-04-01T14:54:44;12.00;97.30
1075;DHT22;526;51.392;12.448;2023-04-01T14:57:20;12.10;97.30
1075;DHT22;526;51.392;12.448;2023-04-01T14:59:51;12.10;97.30
1075;DHT22;526;51.392;12.448;2023-04-01T15:02:42;12.00;97.30
1075;DHT22;526;51.392;12.448;2023-04-01T15:07:48;12.00;97.30
1075;DHT22;526;51.392;12.448;2023-04-01T15:10:52;11.90;97.30
1075;DHT22;526;51.392;12.448;2023-04-01T15:13:36;11.90;97.30
1075;DHT22;526;51.392;12.448;2023-04-01T15:16:18;11.80;97.30
1075;DHT22;526;51.392;12.448;2023-04-01T15:24:24;11.70;97.30
1075;DHT22;526;51.392;12.448;2023-04-01T15:27:02;11.70;97.30
1075;DHT22;526;51.392;12.448;2023-04-01T15:30:02;11.70;97.30
1075;DHT22;526;51.392;12.448;2023-04-01T15:35:45;11.70;97.30
1075;DHT22;526;51.392;12.448;2023-04-01T15:38:27;11.70;97.30
1075;DHT22;526;51.392;12.448;2023-04-01T15:41:03;11.70;97.30
1075;DHT22;526;51.392;12.448;2023-04-01T15:43:45;11.70;97.30
1075;DHT22;526;51.392;12.448;2023-04-01T15:51:56;11.80;97.30
1075;DHT22;526;51.392;12.448;2023-04-01T15:54:46;11.80;97.30
1075;DHT22;526;51.392;12.448;2023-04-01T16:03:19;11.80;97.30
1075;DHT22;526;51.392;12.448;2023-04-01T16:06:01;11.70;97.30
1075;DHT22;526;51.392;12.448;2023-04-01T16:11:37;11.70;97.30
1075;DHT22;526;51.392;12.448;2023-04-01T16:17:31;11.60;97.30
1075;DHT22;526;51.392;12.448;2023-04-01T16:20:20;11.60;97.30
1075;DHT22;526;51.392;12.448;2023-04-01T16:23:02;11.60;97.30
1075;DHT22;526;51.392;12.448;2023-04-01T16:25:39;11.60;97.30
1075;DHT22;526;51.392;12.448;2023-04-01T16:28:30;11.60;97.30
1075;DHT22;526;51.392;12.448;2023-04-01T16:31:14;11.50;97.30
1075;DHT22;526;51.392;12.448;2023-04-01T16:36:51;11.50;97.30
1075;DHT22;526;51.392;12.448;2023-04-01T16:39:43;11.50;97.30
1075;DHT22;526;51.392;12.448;2023-04-01T16:47:49;11.40;97.30
1075;DHT22;526;51.392;12.448;2023-04-01T16:55:19;11.30;97.30
1075;DHT22;526;51.392;12.448;2023-04-01T16:57:51;11.30;97.30
1075;DHT22;526;51.392;12.448;2023-04-01T17:00:26;11.30;97.30
1075;DHT22;526;51.392;12.448;2023-04-01T17:02:56;11.30;97.30
1075;DHT22;526;51.392;12.448;2023-04-01T17:10:53;11.20;97.30
1075;DHT22;526;51.392;12.448;2023-04-01T17:16:14;11.10;97.30
1075;DHT22;526;51.392;12.448;2023-04-01T17:21:38;11.10;97.30
1075;DHT22;526;51.392;12.448;2023-04-01T17:24:21;11.10;97.30
1075;DHT22;526;51.392;12.448;2023-04-01T17:27:01;11.00;97.30
1075;DHT22;526;51.392;12.448;2023-04-01T17:29:55;11.00;97.30
1075;DHT22;526;51.392;12.448;2023-04-01T17:44:15;10.90;97.30
1075;DHT22;526;51.392;12.448;2023-04-01T17:46:56;10.90;97.30
1075;DHT22;526;51.392;12.448;2023-04-01T17:52:42;10.80;97.30
1075;DHT22;526;51.392;12.448;2023-04-01T17:58:19;10.80;97.30
1075;DHT22;526;51.392;12.448;2023-04-01T18:06:39;10.70;97.30
1075;DHT22;526;51.392;12.448;2023-04-01T18:12:20;10.70;97.30
1075;DHT22;526;51.392;12.448;2023-04-01T18:17:49;10.60;97.30
1075;DHT22;526;51.392;12.448;2023-04-01T18:23:30;10.60;97.30
1075;DHT22;526;51.392;12.448;2023-04-01T18:26:11;10.60;97.30
1075;DHT22;526;51.392;12.448;2023-04-01T18:28:47;10.60;97.30
1075;DHT22;526;51.392;12.448;2023-04-01T18:31:18;10.50;97.30
1075;DHT22;526;51.392;12.448;2023-04-01T18:36:18;10.40;97.30
1075;DHT22;526;51.392;12.448;2023-04-01T18:41:22;10.40;97.30
1075;DHT22;526;51.392;12.448;2023-04-01T18:44:30;10.40;97.30
1075;DHT22;526;51.392;12.448;2023-04-01T18:47:15;10.30;97.30
1075;DHT22;526;51.392;12.448;2023-04-01T18:52:47;10.20;97.30
1075;DHT22;526;51.392;12.448;2023-04-01T18:55:22;10.20;97.30
1075;DHT22;526;51.392;12.448;2023-04-01T18:57:53;10.10;97.30
1075;DHT22;526;51.392;12.448;2023-04-01T19:01:31;10.10;97.30
1075;DHT22;526;51.392;12.448;2023-04-01T19:03:28;10.00;97.30
1075;DHT22;526;51.392;12.448;2023-04-01T19:06:00;10.00;97.30
1075;DHT22;526;51.392;12.448;2023-04-01T19:08:38;10.00;97.30
1075;DHT22;526;51.392;12.448;2023-04-01T19:11:17;9.90;97.30
1075;DHT22;526;51.392;12.448;2023-04-01T19:14:05;9.80;97.30
1075;DHT22;526;51.392;12.448;2023-04-01T19:17:05;9.70;97.30
1075;DHT22;526;51.392;12.448;2023-04-01T19:19:55;9.60;97.30
1075;DHT22;526;51.392;12.448;2023-04-01T19:25:15;9.50;97.30
1075;DHT22;526;51.392;12.448;2023-04-01T19:27:50;9.50;97.30
1075;DHT22;526;51.392;12.448;2023-04-01T19:33:28;9.30;97.30
1075;DHT22;526;51.392;12.448;2023-04-01T19:36:31;9.20;97.30
1075;DHT22;526;51.392;12.448;2023-04-01T19:42:11;9.10;97.30
1075;DHT22;526;51.392;12.448;2023-04-01T19:45:04;9.10;97.30
1075;DHT22;526;51.392;12.448;2023-04-01T19:47:48;9.00;97.30
1075;DHT22;526;51.392;12.448;2023-04-01T19:50:34;9.00;97.30
1075;DHT22;526;51.392;12.448;2023-04-01T19:53:14;8.90;97.30
1075;DHT22;526;51.392;12.448;2023-04-01T20:01:06;8.80;97.30
1075;DHT22;526;51.392;12.448;2023-04-01T20:03:54;8.80;97.30
1075;DHT22;526;51.392;12.448;2023-04-01T20:12:18;8.70;97.30
1075;DHT22;526;51.392;12.448;2023-04-01T20:15:04;8.60;97.30
1075;DHT22;526;51.392;12.448;2023-04-01T20:17:44;8.50;97.30
1075;DHT22;526;51.392;12.448;2023-04-01T20:31:11;8.30;97.30
1075;DHT22;526;51.392;12.448;2023-04-01T20:36:15;8.20;97.30
1075;DHT22;526;51.392;12.448;2023-04-01T20:44:41;8.10;97.30
1075;DHT22;526;51.392;12.448;2023-04-01T20:48:02;8.10;97.30
1075;DHT22;526;51.392;12.448;2023-04-01T20:50:52;8.00;97.30
1075;DHT22;526;51.392;12.448;2023-04-01T20:53:35;8.00;97.30
1075;DHT22;526;51.392;12.448;2023-04-01T20:56:28;7.90;97.30
1075;DHT22;526;51.392;12.448;2023-04-01T21:08:02;7.70;97.30
1075;DHT22;526;51.392;12.448;2023-04-01T21:10:46;7.60;97.30
1075;DHT22;526;51.392;12.448;2023-04-01T21:16:39;7.50;97.30
1075;DHT22;526;51.392;12.448;2023-04-01T21:30:38;7.40;97.30
1075;DHT22;526;51.392;12.448;2023-04-01T21:39:04;7.20;97.30
1075;DHT22;526;51.392;12.448;2023-04-01T21:44:08;7.10;97.30
1075;DHT22;526;51.392;12.448;2023-04-01T21:46:59;7.10;97.30
1075;DHT22;526;51.392;12.448;2023-04-01T21:57:38;6.90;97.30
1075;DHT22;526;51.392;12.448;2023-04-01T22:00:21;6.80;97.30
1075;DHT22;526;51.392;12.448;2023-04-01T22:08:47;6.70;97.30
1075;DHT22;526;51.392;12.448;2023-04-01T22:14:09;6.60;97.30
1075;DHT22;526;51.392;12.448;2023-04-01T22:19:35;6.60;97.30
1075;DHT22;526;51.392;12.448;2023-04-01T22:22:15;6.50;97.30
1075;DHT22;526;51.392;12.448;2023-04-01T22:25:16;6.50;97.30
1075;DHT22;526;51.392;12.448;2023-04-01T22:33:18;6.40;97.30
1075;DHT22;526;51.392;12.448;2023-04-01T22:36:03;6.40;97.30
1075;DHT22;526;51.392;12.448;2023-04-01T22:39:00;6.30;97.30
1075;DHT22;526;51.392;12.448;2023-04-01T22:41:48;6.20;97.30
1075;DHT22;526;51.392;12.448;2023-04-01T22:47:36;6.10;97.30
1075;DHT22;526;51.392;12.448;2023-04-01T22:52:45;6.10;97.30
1075;DHT22;526;51.392;12.448;2023-04-01T22:55:28;6.10;97.30
1075;DHT22;526;51.392;12.448;2023-04-01T22:58:01;6.00;97.30
1075;DHT22;526;51.392;12.448;2023-04-01T23:03:14;6.00;97.30
1075;DHT22;526;51.392;12.448;2023-04-01T23:05:56;6.00;97.30
1075;DHT22;526;51.392;12.448;2023-04-01T23:08:28;6.00;97.30
1075;DHT22;526;51.392;12.448;2023-04-01T23:11:02;6.00;97.30
1075;DHT22;526;51.392;12.448;2023-04-01T23:13:34;6.00;97.30
1075;DHT22;526;51.392;12.448;2023-04-01T23:16:01;5.90;97.30
1075;DHT22;526;51.392;12.448;2023-04-01T23:24:19;5.80;97.30
1075;DHT22;526;51.392;12.448;2023-04-01T23:26:59;5.70;97.30
1075;DHT22;526;51.392;12.448;2023-04-01T23:29:26;5.60;97.30
1075;DHT22;526;51.392;12.448;2023-04-01T23:32:14;5.60;97.30
1075;DHT22;526;51.392;12.448;2023-04-01T23:34:49;5.50;97.30
1075;DHT22;526;51.392;12.448;2023-04-01T23:37:17;5.50;97.30
1075;DHT22;526;51.392;12.448;2023-04-01T23:39:47;5.50;97.30
1075;DHT22;526;51.392;12.448;2023-04-01T23:44:48;5.40;97.30
1075;DHT22;526;51.392;12.448;2023-04-01T23:47:38;5.40;97.30
1075;DHT22;526;51.392;12.448;2023-04-01T23:50:11;5.40;97.30
1075;DHT22;526;51.392;12.448;2023-04-01T23:52:43;5.40;97.30
1075;DHT22;526;51.392;12.448;2023-04-01T23:57:37;5.40;97.30
